sensor_id;sensor_type;location;lat;lon;timestamp;pressure;altitude;pressure_sealevel;temperature;humidity
79465;BME280;68932;47.410;8.232;2023-05-20T00:01:35;96774.82;;;12.83;65.70
79465;BME280;68932;47.410;8.232;2023-05-20T00:04:03;96773.66;;;12.82;65.78
79465;BME280;68932;47.410;8.232;2023-05-20T00:06:32;96773.63;;;12.80;65.79
79465;BME280;68932;47.410;8.232;2023-05-20T00:09:00;96781.55;;;12.79;65.82
79465;BME280;68932;47.410;8.232;2023-05-20T00:11:28;96783.27;;;12.78;65.91
79465;BME280;68932;47.410;8.232;2023-05-20T00:13:56;96780.36;;;12.77;66.15
79465;BME280;68932;47.410;8.232;2023-05-20T00:16:24;96779.83;;;12.77;66.43
79465;BME280;68932;47.410;8.232;2023-05-20T00:18:53;96772.73;;;12.77;66.52
79465;BME280;68932;47.410;8.232;2023-05-20T00:21:21;96769.27;;;12.79;66.46
79465;BME280;68932;47.410;8.232;2023-05-20T00:23:50;96770.43;;;12.80;66.56
79465;BME280;68932;47.410;8.232;2023-05-20T00:26:19;96765.35;;;12.83;66.39
79465;BME280;68932;47.410;8.232;2023-05-20T00:28:47;96764.92;;;12.84;66.44
79465;BME280;68932;47.410;8.232;2023-05-20T00:31:15;96760.44;;;12.85;66.34
79465;BME280;68932;47.410;8.232;2023-05-20T00:33:43;96759.52;;;12.85;66.54
79465;BME280;68932;47.410;8.232;2023-05-20T00:36:12;96757.67;;;12.84;66.75
79465;BME280;68932;47.410;8.232;2023-05-20T00:38:40;96759.05;;;12.82;66.70
79465;BME280;68932;47.410;8.232;2023-05-20T00:41:08;96756.78;;;12.79;66.72
79465;BME280;68932;47.410;8.232;2023-05-20T00:43:37;96756.94;;;12.75;67.07
79465;BME280;68932;47.410;8.232;2023-05-20T00:46:05;96761.10;;;12.71;67.22
79465;BME280;68932;47.410;8.232;2023-05-20T00:48:40;96761.91;;;12.68;67.25
79465;BME280;68932;47.410;8.232;2023-05-20T00:51:10;96757.67;;;12.66;67.18
79465;BME280;68932;47.410;8.232;2023-05-20T00:53:39;96754.66;;;12.63;67.27
79465;BME280;68932;47.410;8.232;2023-05-20T00:56:08;96752.13;;;12.62;67.12
79465;BME280;68932;47.410;8.232;2023-05-20T00:58:37;96745.90;;;12.59;67.22
79465;BME280;68932;47.410;8.232;2023-05-20T01:01:07;96739.90;;;12.54;67.14
79465;BME280;68932;47.410;8.232;2023-05-20T01:03:35;96744.50;;;12.52;67.19
79465;BME280;68932;47.410;8.232;2023-05-20T01:06:04;96740.92;;;12.46;67.39
79465;BME280;68932;47.410;8.232;2023-05-20T01:08:32;96744.55;;;12.40;67.46
79465;BME280;68932;47.410;8.232;2023-05-20T01:11:05;96739.98;;;12.33;67.47
79465;BME280;68932;47.410;8.232;2023-05-20T01:13:38;96736.15;;;12.28;67.58
79465;BME280;68932;47.410;8.232;2023-05-20T01:16:10;96734.61;;;12.23;67.60
79465;BME280;68932;47.410;8.232;2023-05-20T01:18:39;96729.71;;;12.20;67.70
79465;BME280;68932;47.410;8.232;2023-05-20T01:21:11;96730.51;;;12.17;67.73
79465;BME280;68932;47.410;8.232;2023-05-20T01:23:41;96726.73;;;12.13;67.76
79465;BME280;68932;47.410;8.232;2023-05-20T01:26:10;96727.85;;;12.10;67.89
79465;BME280;68932;47.410;8.232;2023-05-20T01:28:38;96726.27;;;12.06;67.99
79465;BME280;68932;47.410;8.232;2023-05-20T01:31:12;96722.36;;;12.01;68.08
79465;BME280;68932;47.410;8.232;2023-05-20T01:33:43;96724.52;;;11.98;68.11
79465;BME280;68932;47.410;8.232;2023-05-20T01:36:12;96721.77;;;11.95;68.13
79465;BME280;68932;47.410;8.232;2023-05-20T01:38:41;96722.09;;;11.91;68.37
79465;BME280;68932;47.410;8.232;2023-05-20T01:41:10;96718.23;;;11.88;68.40
79465;BME280;68932;47.410;8.232;2023-05-20T01:43:40;96714.11;;;11.87;68.39
79465;BME280;68932;47.410;8.232;2023-05-20T01:46:08;96715.48;;;11.85;68.46
79465;BME280;68932;47.410;8.232;2023-05-20T01:48:37;96722.09;;;11.83;68.54
79465;BME280;68932;47.410;8.232;2023-05-20T01:51:05;96720.06;;;11.77;68.76
79465;BME280;68932;47.410;8.232;2023-05-20T01:53:34;96724.00;;;11.74;68.98
79465;BME280;68932;47.410;8.232;2023-05-20T01:56:04;96726.79;;;11.72;69.12
79465;BME280;68932;47.410;8.232;2023-05-20T01:58:32;96726.02;;;11.70;69.38
79465;BME280;68932;47.410;8.232;2023-05-20T02:01:00;96725.02;;;11.72;69.60
79465;BME280;68932;47.410;8.232;2023-05-20T02:03:29;96723.86;;;11.76;69.77
79465;BME280;68932;47.410;8.232;2023-05-20T02:05:57;96724.15;;;11.81;69.90
79465;BME280;68932;47.410;8.232;2023-05-20T02:08:25;96723.09;;;11.86;70.14
79465;BME280;68932;47.410;8.232;2023-05-20T02:10:53;96717.60;;;11.89;70.27
79465;BME280;68932;47.410;8.232;2023-05-20T02:13:22;96715.64;;;11.92;70.40
79465;BME280;68932;47.410;8.232;2023-05-20T02:15:51;96711.45;;;11.94;70.52
79465;BME280;68932;47.410;8.232;2023-05-20T02:18:19;96707.16;;;11.97;70.47
79465;BME280;68932;47.410;8.232;2023-05-20T02:20:47;96704.84;;;12.00;70.60
79465;BME280;68932;47.410;8.232;2023-05-20T02:23:15;96707.03;;;12.04;70.58
79465;BME280;68932;47.410;8.232;2023-05-20T02:25:44;96705.44;;;12.09;70.64
79465;BME280;68932;47.410;8.232;2023-05-20T02:28:12;96706.05;;;12.12;70.63
79465;BME280;68932;47.410;8.232;2023-05-20T02:30:40;96701.11;;;12.15;70.47
79465;BME280;68932;47.410;8.232;2023-05-20T02:33:08;96706.45;;;12.16;70.29
79465;BME280;68932;47.410;8.232;2023-05-20T02:35:37;96703.02;;;12.17;70.39
79465;BME280;68932;47.410;8.232;2023-05-20T02:38:05;96703.45;;;12.19;70.32
79465;BME280;68932;47.410;8.232;2023-05-20T02:40:33;96709.33;;;12.18;70.10
79465;BME280;68932;47.410;8.232;2023-05-20T02:43:02;96705.95;;;12.18;70.27
79465;BME280;68932;47.410;8.232;2023-05-20T02:45:30;96700.08;;;12.22;70.17
79465;BME280;68932;47.410;8.232;2023-05-20T02:47:59;96703.15;;;12.25;70.09
79465;BME280;68932;47.410;8.232;2023-05-20T02:50:27;96699.19;;;12.28;70.28
79465;BME280;68932;47.410;8.232;2023-05-20T02:52:55;96698.31;;;12.31;70.15
79465;BME280;68932;47.410;8.232;2023-05-20T02:55:23;96701.84;;;12.33;70.04
79465;BME280;68932;47.410;8.232;2023-05-20T02:57:52;96701.75;;;12.34;70.12
79465;BME280;68932;47.410;8.232;2023-05-20T03:00:20;96700.04;;;12.36;70.24
79465;BME280;68932;47.410;8.232;2023-05-20T03:02:48;96694.13;;;12.37;70.34
79465;BME280;68932;47.410;8.232;2023-05-20T03:05:17;96691.18;;;12.36;70.00
79465;BME280;68932;47.410;8.232;2023-05-20T03:07:45;96693.65;;;12.36;69.90
79465;BME280;68932;47.410;8.232;2023-05-20T03:10:13;96693.64;;;12.36;69.83
79465;BME280;68932;47.410;8.232;2023-05-20T03:12:41;96697.47;;;12.37;69.95
79465;BME280;68932;47.410;8.232;2023-05-20T03:15:11;96700.95;;;12.37;70.19
79465;BME280;68932;47.410;8.232;2023-05-20T03:17:39;96697.73;;;12.38;70.29
79465;BME280;68932;47.410;8.232;2023-05-20T03:20:09;96696.25;;;12.39;70.23
79465;BME280;68932;47.410;8.232;2023-05-20T03:22:38;96697.89;;;12.41;70.26
79465;BME280;68932;47.410;8.232;2023-05-20T03:25:08;96692.70;;;12.40;70.32
79465;BME280;68932;47.410;8.232;2023-05-20T03:27:36;96688.09;;;12.40;70.09
79465;BME280;68932;47.410;8.232;2023-05-20T03:30:06;96684.29;;;12.39;70.32
79465;BME280;68932;47.410;8.232;2023-05-20T03:32:35;96682.61;;;12.41;70.49
79465;BME280;68932;47.410;8.232;2023-05-20T03:35:04;96681.36;;;12.44;70.22
79465;BME280;68932;47.410;8.232;2023-05-20T03:37:32;96681.68;;;12.44;70.19
79465;BME280;68932;47.410;8.232;2023-05-20T03:40:00;96682.74;;;12.46;70.30
79465;BME280;68932;47.410;8.232;2023-05-20T03:42:29;96682.05;;;12.48;70.34
79465;BME280;68932;47.410;8.232;2023-05-20T03:44:57;96677.77;;;12.49;70.54
79465;BME280;68932;47.410;8.232;2023-05-20T03:47:25;96679.70;;;12.49;70.59
79465;BME280;68932;47.410;8.232;2023-05-20T03:49:54;96675.14;;;12.49;70.47
79465;BME280;68932;47.410;8.232;2023-05-20T03:52:22;96674.59;;;12.49;70.36
79465;BME280;68932;47.410;8.232;2023-05-20T03:54:50;96670.67;;;12.49;70.42
79465;BME280;68932;47.410;8.232;2023-05-20T03:57:19;96677.83;;;12.50;70.11
79465;BME280;68932;47.410;8.232;2023-05-20T03:59:47;96680.56;;;12.49;70.03
79465;BME280;68932;47.410;8.232;2023-05-20T04:02:16;96684.66;;;12.48;70.20
79465;BME280;68932;47.410;8.232;2023-05-20T04:04:44;96683.75;;;12.49;70.46
79465;BME280;68932;47.410;8.232;2023-05-20T04:07:12;96684.52;;;12.50;70.52
79465;BME280;68932;47.410;8.232;2023-05-20T04:09:40;96682.36;;;12.51;70.45
79465;BME280;68932;47.410;8.232;2023-05-20T04:12:09;96680.15;;;12.52;70.50
79465;BME280;68932;47.410;8.232;2023-05-20T04:14:37;96680.66;;;12.54;70.55
79465;BME280;68932;47.410;8.232;2023-05-20T04:17:06;96680.79;;;12.59;70.57
79465;BME280;68932;47.410;8.232;2023-05-20T04:19:34;96686.69;;;12.63;70.55
79465;BME280;68932;47.410;8.232;2023-05-20T04:22:03;96692.55;;;12.64;70.54
79465;BME280;68932;47.410;8.232;2023-05-20T04:24:31;96699.31;;;12.66;70.49
79465;BME280;68932;47.410;8.232;2023-05-20T04:26:59;96697.81;;;12.66;70.64
79465;BME280;68932;47.410;8.232;2023-05-20T04:29:28;96695.01;;;12.68;70.72
79465;BME280;68932;47.410;8.232;2023-05-20T04:31:56;96691.68;;;12.68;70.71
79465;BME280;68932;47.410;8.232;2023-05-20T04:34:24;96684.68;;;12.68;70.51
79465;BME280;68932;47.410;8.232;2023-05-20T04:36:52;96685.15;;;12.69;70.66
79465;BME280;68932;47.410;8.232;2023-05-20T04:39:21;96681.56;;;12.70;70.70
79465;BME280;68932;47.410;8.232;2023-05-20T04:41:49;96682.40;;;12.70;70.43
79465;BME280;68932;47.410;8.232;2023-05-20T04:44:17;96689.67;;;12.72;70.48
79465;BME280;68932;47.410;8.232;2023-05-20T04:46:45;96696.92;;;12.73;70.44
79465;BME280;68932;47.410;8.232;2023-05-20T04:49:14;96689.48;;;12.74;70.42
79465;BME280;68932;47.410;8.232;2023-05-20T04:51:42;96681.38;;;12.76;69.99
79465;BME280;68932;47.410;8.232;2023-05-20T04:54:10;96679.39;;;12.79;69.85
79465;BME280;68932;47.410;8.232;2023-05-20T04:56:38;96679.29;;;12.83;69.66
79465;BME280;68932;47.410;8.232;2023-05-20T04:59:07;96677.96;;;12.86;69.51
79465;BME280;68932;47.410;8.232;2023-05-20T05:01:35;96678.33;;;12.89;69.41
79465;BME280;68932;47.410;8.232;2023-05-20T05:04:04;96675.42;;;12.92;69.66
79465;BME280;68932;47.410;8.232;2023-05-20T05:06:32;96675.36;;;12.95;69.82
79465;BME280;68932;47.410;8.232;2023-05-20T05:09:00;96674.72;;;13.01;69.80
79465;BME280;68932;47.410;8.232;2023-05-20T05:11:29;96671.02;;;13.05;69.70
79465;BME280;68932;47.410;8.232;2023-05-20T05:13:57;96671.59;;;13.06;69.34
79465;BME280;68932;47.410;8.232;2023-05-20T05:16:25;96669.55;;;13.10;69.52
79465;BME280;68932;47.410;8.232;2023-05-20T05:19:07;96670.19;;;13.11;69.31
79465;BME280;68932;47.410;8.232;2023-05-20T05:21:35;96671.75;;;13.13;69.28
79465;BME280;68932;47.410;8.232;2023-05-20T05:24:04;96671.02;;;13.16;68.98
79465;BME280;68932;47.410;8.232;2023-05-20T05:26:32;96671.02;;;13.18;68.80
79465;BME280;68932;47.410;8.232;2023-05-20T05:29:01;96666.52;;;13.19;68.65
79465;BME280;68932;47.410;8.232;2023-05-20T05:31:29;96669.48;;;13.22;68.64
79465;BME280;68932;47.410;8.232;2023-05-20T05:33:57;96668.09;;;13.24;68.74
79465;BME280;68932;47.410;8.232;2023-05-20T05:36:26;96668.12;;;13.28;68.83
79465;BME280;68932;47.410;8.232;2023-05-20T05:38:54;96664.65;;;13.30;68.54
79465;BME280;68932;47.410;8.232;2023-05-20T05:41:22;96664.39;;;13.33;69.04
79465;BME280;68932;47.410;8.232;2023-05-20T05:43:50;96665.29;;;13.37;69.05
79465;BME280;68932;47.410;8.232;2023-05-20T05:46:19;96661.05;;;13.41;69.18
79465;BME280;68932;47.410;8.232;2023-05-20T05:48:48;96659.46;;;13.44;68.82
79465;BME280;68932;47.410;8.232;2023-05-20T05:51:16;96667.58;;;13.45;68.75
79465;BME280;68932;47.410;8.232;2023-05-20T05:53:44;96668.48;;;13.47;69.01
79465;BME280;68932;47.410;8.232;2023-05-20T05:56:13;96661.77;;;13.52;69.00
79465;BME280;68932;47.410;8.232;2023-05-20T05:58:41;96658.69;;;13.57;69.19
79465;BME280;68932;47.410;8.232;2023-05-20T06:01:10;96658.16;;;13.61;68.85
79465;BME280;68932;47.410;8.232;2023-05-20T06:03:38;96659.69;;;13.67;68.83
79465;BME280;68932;47.410;8.232;2023-05-20T06:06:06;96659.28;;;13.69;68.62
79465;BME280;68932;47.410;8.232;2023-05-20T06:08:34;96659.88;;;13.72;68.63
79465;BME280;68932;47.410;8.232;2023-05-20T06:11:03;96661.83;;;13.75;68.26
79465;BME280;68932;47.410;8.232;2023-05-20T06:13:31;96659.08;;;13.76;68.29
79465;BME280;68932;47.410;8.232;2023-05-20T06:15:59;96659.77;;;13.76;68.16
79465;BME280;68932;47.410;8.232;2023-05-20T06:18:28;96658.27;;;13.75;68.24
79465;BME280;68932;47.410;8.232;2023-05-20T06:20:57;96658.46;;;13.75;68.30
79465;BME280;68932;47.410;8.232;2023-05-20T06:23:25;96654.63;;;13.74;68.15
79465;BME280;68932;47.410;8.232;2023-05-20T06:25:58;96655.88;;;13.74;68.33
79465;BME280;68932;47.410;8.232;2023-05-20T06:28:26;96654.67;;;13.74;68.47
79465;BME280;68932;47.410;8.232;2023-05-20T06:30:56;96650.42;;;13.74;68.90
79465;BME280;68932;47.410;8.232;2023-05-20T06:33:25;96645.67;;;13.76;68.97
79465;BME280;68932;47.410;8.232;2023-05-20T06:35:53;96639.62;;;13.77;68.89
79465;BME280;68932;47.410;8.232;2023-05-20T06:38:22;96637.98;;;13.77;69.02
79465;BME280;68932;47.410;8.232;2023-05-20T06:40:51;96638.74;;;13.79;69.18
79465;BME280;68932;47.410;8.232;2023-05-20T06:43:19;96637.91;;;13.80;69.09
79465;BME280;68932;47.410;8.232;2023-05-20T06:45:47;96627.05;;;13.79;69.07
79465;BME280;68932;47.410;8.232;2023-05-20T06:48:16;96624.52;;;13.81;69.30
79465;BME280;68932;47.410;8.232;2023-05-20T06:50:45;96628.41;;;13.82;69.38
79465;BME280;68932;47.410;8.232;2023-05-20T06:53:13;96630.70;;;13.84;69.30
79465;BME280;68932;47.410;8.232;2023-05-20T06:55:41;96624.35;;;13.85;69.35
79465;BME280;68932;47.410;8.232;2023-05-20T06:58:10;96627.27;;;13.85;69.33
79465;BME280;68932;47.410;8.232;2023-05-20T07:00:38;96629.45;;;13.87;69.07
79465;BME280;68932;47.410;8.232;2023-05-20T07:03:07;96627.09;;;13.88;69.17
79465;BME280;68932;47.410;8.232;2023-05-20T07:05:35;96625.06;;;13.91;69.06
79465;BME280;68932;47.410;8.232;2023-05-20T07:08:04;96631.98;;;13.92;68.97
79465;BME280;68932;47.410;8.232;2023-05-20T07:10:32;96625.23;;;13.93;68.94
79465;BME280;68932;47.410;8.232;2023-05-20T07:13:01;96626.60;;;13.95;69.12
79465;BME280;68932;47.410;8.232;2023-05-20T07:15:29;96624.92;;;13.96;69.11
79465;BME280;68932;47.410;8.232;2023-05-20T07:17:57;96632.18;;;13.98;69.12
79465;BME280;68932;47.410;8.232;2023-05-20T07:20:25;96627.25;;;14.01;69.29
79465;BME280;68932;47.410;8.232;2023-05-20T07:22:54;96627.70;;;14.03;69.23
79465;BME280;68932;47.410;8.232;2023-05-20T07:25:22;96628.10;;;14.07;69.34
79465;BME280;68932;47.410;8.232;2023-05-20T07:27:50;96623.15;;;14.11;69.30
79465;BME280;68932;47.410;8.232;2023-05-20T07:30:18;96622.52;;;14.12;69.06
79465;BME280;68932;47.410;8.232;2023-05-20T07:32:47;96617.38;;;14.15;69.08
79465;BME280;68932;47.410;8.232;2023-05-20T07:35:15;96617.65;;;14.15;68.80
79465;BME280;68932;47.410;8.232;2023-05-20T07:37:43;96615.91;;;14.15;68.91
79465;BME280;68932;47.410;8.232;2023-05-20T07:40:12;96618.62;;;14.19;69.05
79465;BME280;68932;47.410;8.232;2023-05-20T07:42:41;96616.44;;;14.24;69.06
79465;BME280;68932;47.410;8.232;2023-05-20T07:45:11;96613.80;;;14.30;69.11
79465;BME280;68932;47.410;8.232;2023-05-20T07:47:39;96608.31;;;14.38;68.94
79465;BME280;68932;47.410;8.232;2023-05-20T07:50:09;96607.75;;;14.51;68.73
79465;BME280;68932;47.410;8.232;2023-05-20T07:52:37;96607.58;;;14.65;68.40
79465;BME280;68932;47.410;8.232;2023-05-20T07:55:07;96610.48;;;14.80;68.24
79465;BME280;68932;47.410;8.232;2023-05-20T07:57:35;96607.41;;;14.95;67.95
79465;BME280;68932;47.410;8.232;2023-05-20T08:00:05;96603.98;;;15.07;67.74
79465;BME280;68932;47.410;8.232;2023-05-20T08:02:33;96606.39;;;15.14;67.05
79465;BME280;68932;47.410;8.232;2023-05-20T08:05:02;96604.64;;;15.18;66.90
79465;BME280;68932;47.410;8.232;2023-05-20T08:07:31;96596.39;;;15.21;66.64
79465;BME280;68932;47.410;8.232;2023-05-20T08:09:59;96598.73;;;15.25;66.53
79465;BME280;68932;47.410;8.232;2023-05-20T08:12:27;96596.06;;;15.27;66.26
79465;BME280;68932;47.410;8.232;2023-05-20T08:14:56;96596.59;;;15.29;66.14
79465;BME280;68932;47.410;8.232;2023-05-20T08:17:24;96598.17;;;15.31;66.20
79465;BME280;68932;47.410;8.232;2023-05-20T08:19:53;96596.65;;;15.32;66.04
79465;BME280;68932;47.410;8.232;2023-05-20T08:22:21;96602.40;;;15.35;66.03
79465;BME280;68932;47.410;8.232;2023-05-20T08:24:49;96605.67;;;15.37;65.86
79465;BME280;68932;47.410;8.232;2023-05-20T08:27:17;96606.50;;;15.38;66.00
79465;BME280;68932;47.410;8.232;2023-05-20T08:29:46;96602.58;;;15.38;65.96
79465;BME280;68932;47.410;8.232;2023-05-20T08:32:14;96603.89;;;15.40;66.02
79465;BME280;68932;47.410;8.232;2023-05-20T08:34:42;96602.80;;;15.44;66.20
79465;BME280;68932;47.410;8.232;2023-05-20T08:37:10;96599.02;;;15.51;66.04
79465;BME280;68932;47.410;8.232;2023-05-20T08:39:39;96597.36;;;15.57;65.57
79465;BME280;68932;47.410;8.232;2023-05-20T08:42:08;96594.38;;;15.63;65.84
79465;BME280;68932;47.410;8.232;2023-05-20T08:44:37;96587.27;;;15.75;65.80
79465;BME280;68932;47.410;8.232;2023-05-20T08:47:06;96585.08;;;15.87;65.24
79465;BME280;68932;47.410;8.232;2023-05-20T08:52:17;96585.59;;;16.05;64.92
79465;BME280;68932;47.410;8.232;2023-05-20T08:54:49;96584.70;;;16.12;64.61
79465;BME280;68932;47.410;8.232;2023-05-20T08:57:17;96589.44;;;16.14;64.56
79465;BME280;68932;47.410;8.232;2023-05-20T08:59:46;96588.83;;;16.13;64.07
79465;BME280;68932;47.410;8.232;2023-05-20T09:02:15;96587.98;;;16.05;63.68
79465;BME280;68932;47.410;8.232;2023-05-20T09:04:43;96585.38;;;15.95;63.65
79465;BME280;68932;47.410;8.232;2023-05-20T09:07:11;96584.55;;;15.85;63.83
79465;BME280;68932;47.410;8.232;2023-05-20T09:09:40;96583.13;;;15.76;63.90
79465;BME280;68932;47.410;8.232;2023-05-20T09:12:08;96585.76;;;15.68;64.14
79465;BME280;68932;47.410;8.232;2023-05-20T09:14:37;96591.60;;;15.62;64.20
79465;BME280;68932;47.410;8.232;2023-05-20T09:17:06;96586.56;;;15.57;64.34
79465;BME280;68932;47.410;8.232;2023-05-20T09:19:34;96587.70;;;15.54;64.37
79465;BME280;68932;47.410;8.232;2023-05-20T09:22:04;96590.08;;;15.53;64.61
79465;BME280;68932;47.410;8.232;2023-05-20T09:24:32;96584.82;;;15.53;64.57
79465;BME280;68932;47.410;8.232;2023-05-20T09:27:00;96585.92;;;15.54;64.59
79465;BME280;68932;47.410;8.232;2023-05-20T09:29:31;96580.06;;;15.55;64.37
79465;BME280;68932;47.410;8.232;2023-05-20T09:32:02;96584.49;;;15.53;64.50
79465;BME280;68932;47.410;8.232;2023-05-20T09:34:31;96586.32;;;15.52;64.65
79465;BME280;68932;47.410;8.232;2023-05-20T09:37:00;96588.42;;;15.52;64.69
79465;BME280;68932;47.410;8.232;2023-05-20T09:39:33;96585.39;;;15.52;64.88
79465;BME280;68932;47.410;8.232;2023-05-20T09:42:08;96588.48;;;15.52;64.53
79465;BME280;68932;47.410;8.232;2023-05-20T09:44:40;96586.01;;;15.54;64.67
79465;BME280;68932;47.410;8.232;2023-05-20T09:47:10;96581.54;;;15.60;64.80
79465;BME280;68932;47.410;8.232;2023-05-20T09:49:39;96579.18;;;15.65;64.44
79465;BME280;68932;47.410;8.232;2023-05-20T09:52:08;96580.63;;;15.66;63.90
79465;BME280;68932;47.410;8.232;2023-05-20T09:54:38;96583.51;;;15.75;64.80
79465;BME280;68932;47.410;8.232;2023-05-20T09:57:07;96583.06;;;15.86;64.75
79465;BME280;68932;47.410;8.232;2023-05-20T09:59:37;96581.61;;;15.95;64.57
79465;BME280;68932;47.410;8.232;2023-05-20T10:02:06;96583.05;;;16.05;64.03
79465;BME280;68932;47.410;8.232;2023-05-20T10:04:37;96579.34;;;16.11;63.73
79465;BME280;68932;47.410;8.232;2023-05-20T10:07:25;96579.68;;;16.16;63.82
79465;BME280;68932;47.410;8.232;2023-05-20T10:10:05;96572.45;;;16.27;63.36
79465;BME280;68932;47.410;8.232;2023-05-20T10:12:44;96571.48;;;16.35;63.13
79465;BME280;68932;47.410;8.232;2023-05-20T10:15:21;96570.48;;;16.42;63.08
79465;BME280;68932;47.410;8.232;2023-05-20T10:18:05;96566.43;;;16.48;62.69
79465;BME280;68932;47.410;8.232;2023-05-20T10:20:47;96572.41;;;16.53;62.57
79465;BME280;68932;47.410;8.232;2023-05-20T10:23:23;96569.45;;;16.66;62.66
79465;BME280;68932;47.410;8.232;2023-05-20T10:25:53;96567.41;;;16.87;62.77
79465;BME280;68932;47.410;8.232;2023-05-20T10:28:33;96565.86;;;16.99;61.98
79465;BME280;68932;47.410;8.232;2023-05-20T10:31:02;96557.75;;;17.04;61.60
79465;BME280;68932;47.410;8.232;2023-05-20T10:33:44;96555.27;;;17.06;61.66
79465;BME280;68932;47.410;8.232;2023-05-20T10:36:22;96560.10;;;17.04;61.64
79465;BME280;68932;47.410;8.232;2023-05-20T10:38:53;96566.12;;;16.98;61.46
79465;BME280;68932;47.410;8.232;2023-05-20T10:41:25;96569.35;;;16.89;61.36
79465;BME280;68932;47.410;8.232;2023-05-20T10:44:04;96565.59;;;16.80;61.48
79465;BME280;68932;47.410;8.232;2023-05-20T10:46:33;96567.56;;;16.76;61.78
79465;BME280;68932;47.410;8.232;2023-05-20T10:49:03;96568.00;;;16.81;62.41
79465;BME280;68932;47.410;8.232;2023-05-20T10:51:36;96566.13;;;16.91;62.24
79465;BME280;68932;47.410;8.232;2023-05-20T10:54:08;96566.02;;;16.98;61.91
79465;BME280;68932;47.410;8.232;2023-05-20T10:56:36;96569.63;;;17.04;61.80
79465;BME280;68932;47.410;8.232;2023-05-20T10:59:05;96564.81;;;17.05;61.14
79465;BME280;68932;47.410;8.232;2023-05-20T11:01:33;96559.41;;;17.07;61.06
79465;BME280;68932;47.410;8.232;2023-05-20T11:04:02;96555.68;;;17.18;61.18
79465;BME280;68932;47.410;8.232;2023-05-20T11:06:31;96550.16;;;17.33;61.14
79465;BME280;68932;47.410;8.232;2023-05-20T11:09:04;96547.61;;;17.46;61.26
79465;BME280;68932;47.410;8.232;2023-05-20T11:11:33;96543.27;;;17.59;61.25
79465;BME280;68932;47.410;8.232;2023-05-20T11:14:01;96547.11;;;17.74;61.18
79465;BME280;68932;47.410;8.232;2023-05-20T11:16:30;96543.90;;;17.77;60.43
79465;BME280;68932;47.410;8.232;2023-05-20T11:18:58;96545.02;;;17.73;59.75
79465;BME280;68932;47.410;8.232;2023-05-20T11:21:26;96547.03;;;17.66;59.99
79465;BME280;68932;47.410;8.232;2023-05-20T11:23:55;96548.73;;;17.58;59.97
79465;BME280;68932;47.410;8.232;2023-05-20T11:26:23;96552.09;;;17.49;59.99
79465;BME280;68932;47.410;8.232;2023-05-20T11:28:51;96550.59;;;17.41;60.17
79465;BME280;68932;47.410;8.232;2023-05-20T11:31:20;96549.63;;;17.36;60.49
79465;BME280;68932;47.410;8.232;2023-05-20T11:33:49;96542.22;;;17.29;60.60
79465;BME280;68932;47.410;8.232;2023-05-20T11:36:17;96539.96;;;17.27;61.08
79465;BME280;68932;47.410;8.232;2023-05-20T11:38:46;96538.86;;;17.27;61.08
79465;BME280;68932;47.410;8.232;2023-05-20T11:41:14;96537.77;;;17.31;61.27
79465;BME280;68932;47.410;8.232;2023-05-20T11:43:42;96537.52;;;17.39;61.21
79465;BME280;68932;47.410;8.232;2023-05-20T11:46:11;96529.63;;;17.50;61.20
79465;BME280;68932;47.410;8.232;2023-05-20T11:48:39;96521.11;;;17.63;60.60
79465;BME280;68932;47.410;8.232;2023-05-20T11:51:18;96519.21;;;17.78;60.30
79465;BME280;68932;47.410;8.232;2023-05-20T11:53:49;96521.30;;;17.90;59.91
79465;BME280;68932;47.410;8.232;2023-05-20T11:56:17;96519.16;;;18.01;59.22
79465;BME280;68932;47.410;8.232;2023-05-20T11:58:47;96524.48;;;18.05;58.78
79465;BME280;68932;47.410;8.232;2023-05-20T12:01:15;96526.41;;;18.01;58.83
79465;BME280;68932;47.410;8.232;2023-05-20T12:03:44;96532.36;;;17.93;58.47
79465;BME280;68932;47.410;8.232;2023-05-20T12:06:13;96536.42;;;17.83;58.88
79465;BME280;68932;47.410;8.232;2023-05-20T12:08:41;96533.77;;;17.76;59.06
79465;BME280;68932;47.410;8.232;2023-05-20T12:11:10;96527.91;;;17.69;58.94
79465;BME280;68932;47.410;8.232;2023-05-20T12:13:38;96524.02;;;17.60;58.92
79465;BME280;68932;47.410;8.232;2023-05-20T12:16:07;96523.23;;;17.57;58.95
79465;BME280;68932;47.410;8.232;2023-05-20T12:18:35;96523.46;;;17.56;59.32
79465;BME280;68932;47.410;8.232;2023-05-20T12:21:04;96524.75;;;17.56;59.63
79465;BME280;68932;47.410;8.232;2023-05-20T12:23:32;96527.41;;;17.51;59.81
79465;BME280;68932;47.410;8.232;2023-05-20T12:26:00;96525.83;;;17.48;60.24
79465;BME280;68932;47.410;8.232;2023-05-20T12:28:28;96522.70;;;17.48;60.25
79465;BME280;68932;47.410;8.232;2023-05-20T12:30:57;96519.12;;;17.47;60.31
79465;BME280;68932;47.410;8.232;2023-05-20T12:33:25;96515.65;;;17.46;60.47
79465;BME280;68932;47.410;8.232;2023-05-20T12:35:53;96518.34;;;17.46;60.33
79465;BME280;68932;47.410;8.232;2023-05-20T12:38:21;96519.66;;;17.44;60.13
79465;BME280;68932;47.410;8.232;2023-05-20T12:40:50;96518.02;;;17.43;60.35
79465;BME280;68932;47.410;8.232;2023-05-20T12:43:18;96512.17;;;17.43;60.14
79465;BME280;68932;47.410;8.232;2023-05-20T12:45:46;96511.95;;;17.45;60.02
79465;BME280;68932;47.410;8.232;2023-05-20T12:48:15;96511.30;;;17.47;59.83
79465;BME280;68932;47.410;8.232;2023-05-20T12:50:43;96514.43;;;17.51;59.91
79465;BME280;68932;47.410;8.232;2023-05-20T12:53:12;96515.56;;;17.58;59.89
79465;BME280;68932;47.410;8.232;2023-05-20T12:55:40;96521.22;;;17.64;59.52
79465;BME280;68932;47.410;8.232;2023-05-20T12:58:08;96520.54;;;17.70;59.19
79465;BME280;68932;47.410;8.232;2023-05-20T13:00:37;96517.88;;;17.77;58.78
79465;BME280;68932;47.410;8.232;2023-05-20T13:03:05;96520.14;;;17.86;58.90
79465;BME280;68932;47.410;8.232;2023-05-20T13:05:34;96513.30;;;17.98;58.70
79465;BME280;68932;47.410;8.232;2023-05-20T13:08:02;96512.71;;;18.07;58.32
79465;BME280;68932;47.410;8.232;2023-05-20T13:10:31;96518.13;;;18.15;57.88
79465;BME280;68932;47.410;8.232;2023-05-20T13:12:59;96512.23;;;18.17;57.78